| time (UTC) | temp C | wind direction | speed KPH | gust KPH | rain 1hr cm | rain 24hr cm | rain mn cm | humidity % | barometer mb |
| 20260505170330 | 12 | 291 | 1.6 | 3.2 | 0.00 | 0.00 | 0.00 | 42 | 1015.8 |
| 20260505165825 | 11 | 262 | 0.0 | 1.6 | 0.00 | 0.00 | 0.00 | 43 | 1015.6 |
| 20260505165321 | 12 | 305 | 3.2 | 3.2 | 0.00 | 0.00 | 0.00 | 44 | 1015.8 |
| 20260505164816 | 11 | 277 | 6.4 | 9.7 | 0.00 | 0.00 | 0.00 | 43 | 1015.4 |
| 20260505164314 | 11 | 332 | 3.2 | 3.2 | 0.00 | 0.00 | 0.00 | 44 | 1015.5 |
| 20260505163812 | 12 | 251 | 8.0 | 11.3 | 0.00 | 0.00 | 0.00 | 43 | 1015.6 |
| 20260505163311 | 12 | 291 | 4.8 | 8.0 | 0.00 | 0.00 | 0.00 | 44 | 1015.6 |
| 20260505162808 | 11 | 250 | 3.2 | 4.8 | 0.00 | 0.00 | 0.00 | 45 | 1015.6 |
| 20260505162306 | 11 | 300 | 3.2 | 3.2 | 0.00 | 0.00 | 0.00 | 45 | 1015.5 |
| 20260505161801 | 11 | 323 | 4.8 | 4.8 | 0.00 | 0.00 | 0.00 | 45 | 1015.2 |
| 20260505161259 | 11 | 317 | 3.2 | 4.8 | 0.00 | 0.00 | 0.00 | 44 | 1015.1 |
| 20260505160756 | 11 | 274 | 4.8 | 8.0 | 0.00 | 0.00 | 0.00 | 44 | 1015.4 |
| 20260505160254 | 11 | 254 | 4.8 | 4.8 | 0.00 | 0.00 | 0.00 | 45 | 1015.4 |
| 20260505153232 | 11 | 311 | 0.0 | 1.6 | 0.00 | 0.00 | 0.00 | 45 | 1015.3 |
| 20260505152729 | 11 | 280 | 0.0 | 0.0 | 0.00 | 0.00 | 0.00 | 44 | 1015.2 |
| 20260505152226 | 11 | 312 | 1.6 | 1.6 | 0.00 | 0.00 | 0.00 | 44 | 1015.2 |
| 20260505151720 | 11 | 325 | 3.2 | 3.2 | 0.00 | 0.00 | 0.00 | 45 | 1015.1 |
| 20260505151218 | 10 | 304 | 1.6 | 1.6 | 0.00 | 0.00 | 0.00 | 45 | 1015.2 |
| 20260505150714 | 10 | 314 | 1.6 | 1.6 | 0.00 | 0.00 | 0.00 | 47 | 1015.0 |
| 20260505150212 | 10 | 291 | 3.2 | 4.8 | 0.00 | 0.00 | 0.00 | 48 | 1015.1 |
| 20260505140645 | 10 | 346 | 1.6 | 3.2 | 0.00 | 0.00 | 0.00 | 52 | 1014.7 |
| 20260505140142 | 10 | 334 | 4.8 | 4.8 | 0.00 | 0.00 | 0.00 | 51 | 1014.4 |
| 20260505130105 | 9 | 271 | 0.0 | 0.0 | 0.00 | 0.00 | 0.00 | 55 | 1015.3 |
| 20260505124555 | 8 | 272 | 0.0 | 0.0 | 0.00 | 0.00 | 0.00 | 56 | 1015.5 |
| 20260505124051 | 8 | 301 | 1.6 | 1.6 | 0.00 | 0.00 | 0.00 | 55 | 1015.6 |
| 20260505123548 | 8 | 264 | 0.0 | 0.0 | 0.00 | 0.00 | 0.00 | 56 | 1015.4 |
| 20260505123044 | 8 | 272 | 0.0 | 0.0 | 0.00 | 0.00 | 0.00 | 56 | 1015.4 |
| 20260505122541 | 8 | 272 | 4.8 | 4.8 | 0.00 | 0.00 | 0.00 | 57 | 1015.6 |
| 20260505122038 | 8 | 262 | 1.6 | 1.6 | 0.00 | 0.00 | 0.00 | 58 | 1015.5 |
| 20260505121534 | 8 | 253 | 0.0 | 1.6 | 0.00 | 0.00 | 0.00 | 61 | 1015.6 |
| 20260505121032 | 7 | 258 | 0.0 | 1.6 | 0.00 | 0.00 | 0.00 | 61 | 1015.4 |
| 20260505120528 | 8 | 258 | 0.0 | 1.6 | 0.00 | 0.00 | 0.00 | 60 | 1015.2 |
| 20260505120023 | 8 | 261 | 0.0 | 0.0 | 0.00 | 0.00 | 0.00 | 59 | 1015.0 |
| 20260505115518 | 8 | 272 | 1.6 | 1.6 | 0.00 | 0.00 | 0.00 | 58 | 1014.8 |
| 20260505115016 | 7 | 271 | 1.6 | 1.6 | 0.00 | 0.00 | 0.00 | 58 | 1015.0 |
| 20260505114513 | 7 | 264 | 1.6 | 1.6 | 0.00 | 0.00 | 0.00 | 58 | 1015.0 |
| 20260505114009 | 7 | 258 | 0.0 | 0.0 | 0.00 | 0.00 | 0.00 | 59 | 1014.8 |
| 20260505113506 | 7 | 257 | 0.0 | 0.0 | 0.00 | 0.00 | 0.00 | 58 | 1014.8 |
| 20260505113001 | 7 | 258 | 0.0 | 1.6 | 0.00 | 0.00 | 0.00 | 57 | 1014.5 |
| 20260505112458 | 7 | 248 | 1.6 | 1.6 | 0.00 | 0.00 | 0.00 | 59 | 1014.6 |
| 20260505111956 | 7 | 247 | 0.0 | 0.0 | 0.00 | 0.00 | 0.00 | 59 | 1014.5 |
| 20260505111450 | 7 | 248 | 0.0 | 1.6 | 0.00 | 0.00 | 0.00 | 58 | 1014.2 |
| 20260505110947 | 7 | 257 | 1.6 | 1.6 | 0.00 | 0.00 | 0.00 | 57 | 1014.2 |
| 20260505110444 | 7 | 263 | 0.0 | 0.0 | 0.00 | 0.00 | 0.00 | 58 | 1013.9 |
| 20260505101915 | 8 | 305 | 0.0 | 1.6 | 0.00 | 0.00 | 0.00 | 54 | 1012.4 |
| 20260505101414 | 8 | 46 | 3.2 | 3.2 | 0.00 | 0.00 | 0.00 | 54 | 1011.8 |
| 20260505100911 | 8 | 355 | 4.8 | 4.8 | 0.00 | 0.00 | 0.00 | 54 | 1011.4 |
| 20260505100408 | 8 | 354 | 3.2 | 3.2 | 0.00 | 0.00 | 0.00 | 54 | 1011.8 |
| 20260505095903 | 8 | 38 | 4.8 | 4.8 | 0.00 | 0.00 | 0.00 | 54 | 1011.9 |
| 20260505095400 | 8 | 310 | 0.0 | 0.0 | 0.00 | 0.00 | 0.00 | 54 | 1012.5 |
| 20260505094856 | 8 | 291 | 0.0 | 0.0 | 0.00 | 0.00 | 0.00 | 54 | 1013.0 |
| 20260505094354 | 8 | 267 | 0.0 | 0.0 | 0.00 | 0.00 | 0.00 | 54 | 1013.2 |
| 20260505093849 | 8 | 269 | 1.6 | 3.2 | 0.00 | 0.00 | 0.00 | 54 | 1013.5 |
| 20260505093347 | 8 | 280 | 1.6 | 1.6 | 0.00 | 0.00 | 0.00 | 52 | 1013.5 |
| 20260505092844 | 8 | 313 | 1.6 | 1.6 | 0.00 | 0.00 | 0.00 | 53 | 1013.0 |
| 20260505092342 | 8 | 338 | 1.6 | 1.6 | 0.00 | 0.00 | 0.00 | 54 | 1012.4 |
| 20260505091839 | 9 | 48 | 0.0 | 1.6 | 0.00 | 0.00 | 0.00 | 52 | 1013.0 |
| 20260505091337 | 8 | 342 | 4.8 | 4.8 | 0.00 | 0.00 | 0.00 | 51 | 1013.0 |
| 20260505090835 | 8 | 354 | 0.0 | 1.6 | 0.00 | 0.00 | 0.00 | 52 | 1012.5 |
| 20260505090333 | 9 | 319 | 0.0 | 1.6 | 0.00 | 0.00 | 0.00 | 52 | 1012.8 |
| 20260505085830 | 9 | 348 | 3.2 | 3.2 | 0.00 | 0.00 | 0.00 | 52 | 1012.8 |
| 20260505085327 | 9 | 2 | 1.6 | 3.2 | 0.00 | 0.00 | 0.00 | 51 | 1013.2 |
| 20260505084825 | 9 | 280 | 0.0 | 1.6 | 0.00 | 0.00 | 0.00 | 52 | 1013.5 |
| 20260505084323 | 9 | 275 | 1.6 | 1.6 | 0.00 | 0.00 | 0.00 | 52 | 1013.2 |
| 20260505083820 | 9 | 341 | 4.8 | 4.8 | 0.00 | 0.00 | 0.00 | 51 | 1013.2 |
| 20260505083318 | 9 | 291 | 1.6 | 1.6 | 0.00 | 0.00 | 0.00 | 51 | 1013.2 |
| 20260505082814 | 9 | 322 | 1.6 | 3.2 | 0.00 | 0.00 | 0.00 | 52 | 1012.4 |
| 20260505082311 | 9 | 27 | 4.8 | 8.0 | 0.00 | 0.00 | 0.00 | 50 | 1011.6 |
| 20260505081807 | 9 | 57 | 6.4 | 8.0 | 0.00 | 0.00 | 0.00 | 51 | 1011.5 |
| 20260505081304 | 9 | 305 | 4.8 | 8.0 | 0.00 | 0.00 | 0.00 | 51 | 1011.8 |
| 20260505080800 | 9 | 328 | 8.0 | 9.7 | 0.00 | 0.00 | 0.00 | 52 | 1012.0 |
| 20260505080256 | 9 | 10 | 8.0 | 11.3 | 0.00 | 0.00 | 0.00 | 52 | 1011.9 |
| 20260505075752 | 9 | 4 | 9.7 | 11.3 | 0.00 | 0.00 | 0.00 | 56 | 1011.6 |
| 20260505075249 | 9 | 18 | 4.8 | 8.0 | 0.00 | 0.00 | 0.00 | 56 | 1011.9 |
| 20260505074746 | 9 | 1 | 8.0 | 9.7 | 0.00 | 0.00 | 0.00 | 57 | 1012.3 |
| 20260505074244 | 8 | 347 | 4.8 | 4.8 | 0.00 | 0.00 | 0.00 | 57 | 1012.0 |
| 20260505073741 | 9 | 337 | 9.7 | 12.9 | 0.00 | 0.00 | 0.00 | 55 | 1011.4 |
| 20260505073239 | 9 | 348 | 6.4 | 9.7 | 0.00 | 0.00 | 0.00 | 55 | 1011.1 |
| 20260505072735 | 9 | 64 | 9.7 | 11.3 | 0.00 | 0.00 | 0.00 | 54 | 1011.5 |
| 20260505072231 | 9 | 339 | 8.0 | 9.7 | 0.00 | 0.00 | 0.00 | 54 | 1012.1 |
| 20260505071727 | 9 | 12 | 4.8 | 8.0 | 0.00 | 0.00 | 0.00 | 56 | 1011.6 |
| 20260505071224 | 10 | 354 | 4.8 | 4.8 | 0.00 | 0.00 | 0.00 | 55 | 1011.2 |
| 20260505070722 | 10 | 18 | 11.3 | 12.9 | 0.00 | 0.00 | 0.00 | 54 | 1011.1 |
| 20260505070218 | 10 | 4 | 8.0 | 11.3 | 0.00 | 0.00 | 0.00 | 53 | 1010.7 |
| 20260505065714 | 10 | 27 | 9.7 | 12.9 | 0.00 | 0.00 | 0.00 | 52 | 1011.1 |
| 20260505065211 | 10 | 333 | 4.8 | 8.0 | 0.00 | 0.00 | 0.00 | 51 | 1011.3 |
| 20260505064708 | 10 | 12 | 4.8 | 4.8 | 0.00 | 0.00 | 0.00 | 49 | 1011.2 |
| 20260505064206 | 10 | 345 | 12.9 | 14.5 | 0.00 | 0.00 | 0.00 | 49 | 1010.9 |
| 20260505063703 | 10 | 9 | 8.0 | 12.9 | 0.00 | 0.00 | 0.00 | 49 | 1010.9 |
| 20260505063159 | 10 | 330 | 6.4 | 8.0 | 0.00 | 0.00 | 0.00 | 49 | 1010.6 |
| 20260505062655 | 10 | 12 | 9.7 | 12.9 | 0.00 | 0.00 | 0.00 | 49 | 1010.1 |
| 20260505062153 | 10 | 343 | 4.8 | 8.0 | 0.00 | 0.00 | 0.00 | 49 | 1010.1 |
| 20260505061650 | 11 | 350 | 12.9 | 22.5 | 0.00 | 0.00 | 0.00 | 49 | 1009.7 |
| 20260505061148 | 11 | 348 | 8.0 | 9.7 | 0.00 | 0.00 | 0.00 | 49 | 1010.1 |
| 20260505060645 | 11 | 319 | 8.0 | 9.7 | 0.00 | 0.00 | 0.00 | 48 | 1009.8 |
| 20260505060142 | 11 | 342 | 14.5 | 22.5 | 0.00 | 0.00 | 0.00 | 47 | 1009.7 |
| 20260505055637 | 11 | 351 | 14.5 | 17.7 | 0.00 | 0.00 | 0.00 | 47 | 1009.6 |
| 20260505055134 | 11 | 28 | 11.3 | 12.9 | 0.00 | 0.00 | 0.00 | 47 | 1009.5 |
| 20260505054632 | 11 | 16 | 9.7 | 11.3 | 0.00 | 0.00 | 0.00 | 47 | 1010.0 |
| 20260505054129 | 11 | 271 | 14.5 | 22.5 | 0.00 | 0.00 | 0.00 | 47 | 1010.3 |
| 20260505053626 | 11 | 338 | 20.9 | 22.5 | 0.00 | 0.00 | 0.00 | 47 | 1010.6 |
| 20260505053123 | 11 | 343 | 11.3 | 14.5 | 0.00 | 0.00 | 0.00 | 48 | 1010.6 |
| 20260505052620 | 11 | 355 | 8.0 | 11.3 | 0.00 | 0.00 | 0.00 | 48 | 1010.5 |
| 20260505052117 | 11 | 294 | 11.3 | 12.9 | 0.00 | 0.00 | 0.00 | 47 | 1010.5 |
| 20260505051614 | 12 | 318 | 4.8 | 4.8 | 0.00 | 0.00 | 0.00 | 48 | 1010.7 |
| 20260505051112 | 12 | 330 | 11.3 | 14.5 | 0.00 | 0.00 | 0.00 | 48 | 1010.4 |
| 20260505050610 | 12 | 347 | 11.3 | 14.5 | 0.00 | 0.00 | 0.00 | 48 | 1009.9 |
| 20260505050108 | 12 | 61 | 11.3 | 14.5 | 0.00 | 0.00 | 0.00 | 49 | 1010.2 |
| 20260505041537 | 13 | 332 | 8.0 | 9.7 | 0.00 | 0.00 | 0.00 | 47 | 1009.9 |
| 20260505041035 | 13 | 339 | 25.7 | 35.4 | 0.00 | 0.00 | 0.00 | 46 | 1009.8 |
| 20260505040532 | 14 | 345 | 11.3 | 12.9 | 0.00 | 0.00 | 0.00 | 46 | 1009.9 |
| 20260505040029 | 14 | 343 | 6.4 | 8.0 | 0.00 | 0.00 | 0.00 | 45 | 1009.6 |
| 20260505035525 | 14 | 354 | 4.8 | 8.0 | 0.00 | 0.00 | 0.00 | 45 | 1009.6 |
| 20260505035022 | 14 | 352 | 11.3 | 16.1 | 0.00 | 0.00 | 0.00 | 44 | 1009.4 |
| 20260505034518 | 14 | 303 | 9.7 | 11.3 | 0.00 | 0.00 | 0.00 | 43 | 1008.7 |
| 20260505034016 | 14 | 327 | 9.7 | 12.9 | 0.00 | 0.00 | 0.00 | 42 | 1008.8 |
| 20260505033513 | 14 | 12 | 12.9 | 20.9 | 0.00 | 0.00 | 0.00 | 42 | 1008.8 |
| 20260505033011 | 14 | 280 | 4.8 | 8.0 | 0.00 | 0.00 | 0.00 | 42 | 1008.9 |
| 20260505032508 | 14 | 350 | 6.4 | 8.0 | 0.00 | 0.00 | 0.00 | 42 | 1008.9 |
| 20260505032004 | 14 | 265 | 4.8 | 4.8 | 0.00 | 0.00 | 0.00 | 42 | 1009.2 |
| 20260505031501 | 15 | 325 | 4.8 | 8.0 | 0.00 | 0.00 | 0.00 | 42 | 1009.0 |
| 20260505030958 | 15 | 308 | 3.2 | 3.2 | 0.00 | 0.00 | 0.00 | 42 | 1009.2 |
| 20260505030454 | 15 | 344 | 16.1 | 20.9 | 0.00 | 0.00 | 0.00 | 41 | 1009.0 |
| 20260505025949 | 15 | 304 | 4.8 | 9.7 | 0.00 | 0.00 | 0.00 | 41 | 1008.7 |
| 20260505025447 | 15 | 295 | 6.4 | 11.3 | 0.00 | 0.00 | 0.00 | 41 | 1008.4 |
| 20260505024946 | 15 | 1 | 4.8 | 4.8 | 0.00 | 0.00 | 0.00 | 41 | 1008.2 |
| 20260505024443 | 15 | 349 | 8.0 | 12.9 | 0.00 | 0.00 | 0.00 | 41 | 1008.3 |
| 20260505023940 | 15 | 348 | 11.3 | 16.1 | 0.00 | 0.00 | 0.00 | 41 | 1008.3 |
| 20260505023437 | 15 | 334 | 6.4 | 9.7 | 0.00 | 0.00 | 0.00 | 41 | 1008.3 |
| 20260505022934 | 15 | 207 | 3.2 | 3.2 | 0.00 | 0.00 | 0.00 | 41 | 1008.3 |
| 20260505022432 | 15 | 332 | 6.4 | 8.0 | 0.00 | 0.00 | 0.00 | 41 | 1008.2 |
| 20260505021928 | 15 | 16 | 8.0 | 11.3 | 0.00 | 0.00 | 0.00 | 40 | 1008.1 |
| 20260505021425 | 16 | 345 | 3.2 | 3.2 | 0.00 | 0.00 | 0.00 | 40 | 1008.0 |
| 20260505020920 | 16 | 351 | 4.8 | 9.7 | 0.00 | 0.00 | 0.00 | 40 | 1007.9 |
| 20260505020416 | 16 | 327 | 14.5 | 20.9 | 0.00 | 0.00 | 0.00 | 39 | 1007.6 |
| 20260505015913 | 16 | 304 | 8.0 | 9.7 | 0.00 | 0.00 | 0.00 | 39 | 1007.4 |
| 20260505015411 | 16 | 10 | 9.7 | 11.3 | 0.00 | 0.00 | 0.00 | 39 | 1007.3 |
| 20260505014908 | 16 | 327 | 8.0 | 9.7 | 0.00 | 0.00 | 0.00 | 38 | 1007.2 |
| 20260505014404 | 16 | 336 | 4.8 | 8.0 | 0.00 | 0.00 | 0.00 | 38 | 1007.0 |
| 20260505013901 | 16 | 331 | 4.8 | 4.8 | 0.00 | 0.00 | 0.00 | 37 | 1007.0 |
| 20260505013358 | 17 | 346 | 3.2 | 3.2 | 0.00 | 0.00 | 0.00 | 37 | 1006.7 |
| 20260505012856 | 17 | 304 | 3.2 | 3.2 | 0.00 | 0.00 | 0.00 | 36 | 1006.5 |
| 20260505012354 | 17 | 205 | 4.8 | 8.0 | 0.00 | 0.00 | 0.00 | 36 | 1006.3 |
| 20260505011850 | 17 | 30 | 9.7 | 11.3 | 0.00 | 0.00 | 0.00 | 36 | 1006.2 |
| 20260505011347 | 17 | 47 | 8.0 | 9.7 | 0.00 | 0.00 | 0.00 | 35 | 1006.3 |
| 20260505010843 | 17 | 323 | 8.0 | 9.7 | 0.00 | 0.00 | 0.00 | 35 | 1006.0 |
| 20260505010339 | 17 | 359 | 11.3 | 14.5 | 0.00 | 0.00 | 0.00 | 35 | 1006.0 |
| 20260505005835 | 18 | 339 | 6.4 | 14.5 | 0.00 | 0.00 | 0.00 | 35 | 1005.7 |
| 20260505005332 | 18 | 343 | 9.7 | 16.1 | 0.00 | 0.00 | 0.00 | 35 | 1005.8 |
| 20260505004830 | 18 | 325 | 12.9 | 16.1 | 0.00 | 0.00 | 0.00 | 35 | 1005.9 |
| 20260505004326 | 18 | 54 | 14.5 | 14.5 | 0.00 | 0.00 | 0.00 | 36 | 1005.7 |
| 20260505003824 | 18 | 323 | 9.7 | 12.9 | 0.00 | 0.00 | 0.00 | 36 | 1005.3 |
| 20260505003321 | 19 | 315 | 12.9 | 16.1 | 0.00 | 0.00 | 0.00 | 36 | 1005.3 |
| 20260505002816 | 19 | 284 | 4.8 | 8.0 | 0.00 | 0.00 | 0.00 | 36 | 1005.2 |
| 20260505002314 | 20 | 3 | 9.7 | 12.9 | 0.00 | 0.00 | 0.00 | 36 | 1005.2 |
| 20260505001812 | 20 | 306 | 12.9 | 17.7 | 0.00 | 0.00 | 0.00 | 36 | 1005.3 |
| 20260505001309 | 20 | 328 | 17.7 | 27.4 | 0.00 | 0.00 | 0.00 | 35 | 1005.0 |
| 20260505000806 | 20 | 349 | 12.9 | 24.1 | 0.00 | 0.00 | 0.00 | 35 | 1005.0 |
| 20260505000304 | 20 | 358 | 19.3 | 33.8 | 0.00 | 0.00 | 0.00 | 35 | 1004.7 |
| 20260504235800 | 21 | 336 | 9.7 | 14.5 | 0.00 | 0.00 | 0.00 | 35 | 1004.7 |
| 20260504235256 | 21 | 5 | 19.3 | 22.5 | 0.00 | 0.00 | 0.00 | 35 | 1004.4 |
| 20260504234754 | 21 | 354 | 14.5 | 22.5 | 0.00 | 0.00 | 0.00 | 35 | 1004.3 |
| 20260504234251 | 22 | 18 | 17.7 | 24.1 | 0.00 | 0.00 | 0.00 | 34 | 1004.4 |
| 20260504233747 | 22 | 312 | 9.7 | 12.9 | 0.00 | 0.00 | 0.00 | 34 | 1004.2 |
| 20260504233243 | 22 | 325 | 17.7 | 22.5 | 0.00 | 0.00 | 0.00 | 34 | 1004.0 |
| 20260504232740 | 22 | 338 | 11.3 | 17.7 | 0.00 | 0.00 | 0.00 | 34 | 1004.1 |
| 20260504232237 | 22 | 346 | 12.9 | 17.7 | 0.00 | 0.00 | 0.00 | 34 | 1004.0 |
| 20260504231734 | 22 | 332 | 9.7 | 12.9 | 0.00 | 0.00 | 0.00 | 34 | 1004.2 |
| 20260504231230 | 23 | 306 | 20.9 | 25.7 | 0.00 | 0.00 | 0.00 | 34 | 1003.9 |
| 20260504230726 | 23 | 330 | 11.3 | 16.1 | 0.00 | 0.00 | 0.00 | 34 | 1003.9 |
| 20260504230225 | 23 | 353 | 9.7 | 12.9 | 0.00 | 0.00 | 0.00 | 34 | 1003.5 |
| 20260504225724 | 24 | 313 | 8.0 | 9.7 | 0.00 | 0.00 | 0.00 | 33 | 1003.7 |
| 20260504225219 | 24 | 329 | 4.8 | 4.8 | 0.00 | 0.00 | 0.00 | 34 | 1003.7 |
| 20260504224716 | 25 | 328 | 11.3 | 17.7 | 0.00 | 0.00 | 0.00 | 34 | 1003.6 |
| 20260504224214 | 25 | 350 | 8.0 | 11.3 | 0.00 | 0.00 | 0.00 | 34 | 1003.6 |
| 20260504223710 | 25 | 300 | 3.2 | 4.8 | 0.00 | 0.00 | 0.00 | 35 | 1003.3 |
| 20260504223206 | 25 | 333 | 4.8 | 8.0 | 0.00 | 0.00 | 0.00 | 35 | 1003.3 |
| 20260504222703 | 25 | 321 | 22.5 | 27.4 | 0.00 | 0.00 | 0.00 | 35 | 1003.2 |
| 20260504222200 | 25 | 340 | 6.4 | 9.7 | 0.00 | 0.00 | 0.00 | 36 | 1003.0 |
| 20260504221657 | 25 | 338 | 16.1 | 24.1 | 0.00 | 0.00 | 0.00 | 37 | 1002.9 |
| 20260504221154 | 25 | 22 | 19.3 | 24.1 | 0.00 | 0.00 | 0.00 | 36 | 1002.9 |
| 20260504220650 | 26 | 338 | 6.4 | 9.7 | 0.00 | 0.00 | 0.00 | 38 | 1002.8 |
| 20260504220148 | 26 | 324 | 8.0 | 9.7 | 0.00 | 0.00 | 0.00 | 37 | 1002.7 |
| 20260504215644 | 26 | 298 | 11.3 | 17.7 | 0.00 | 0.00 | 0.00 | 38 | 1002.4 |
| 20260504215142 | 26 | 269 | 4.8 | 8.0 | 0.00 | 0.00 | 0.00 | 36 | 1002.5 |
| 20260504214637 | 26 | 266 | 4.8 | 8.0 | 0.00 | 0.00 | 0.00 | 36 | 1002.5 |
| 20260504214134 | 26 | 319 | 6.4 | 8.0 | 0.00 | 0.00 | 0.00 | 36 | 1002.5 |
| 20260504213631 | 27 | 263 | 4.8 | 8.0 | 0.00 | 0.00 | 0.00 | 36 | 1002.4 |
| 20260504213127 | 27 | 324 | 16.1 | 22.5 | 0.00 | 0.00 | 0.00 | 32 | 1002.2 |
| 20260504212624 | 27 | 293 | 14.5 | 20.9 | 0.00 | 0.00 | 0.00 | 30 | 1002.3 |
| 20260504212121 | 27 | 284 | 12.9 | 16.1 | 0.00 | 0.00 | 0.00 | 30 | 1002.3 |
| 20260504211618 | 27 | 263 | 14.5 | 25.7 | 0.00 | 0.00 | 0.00 | 30 | 1002.4 |
| 20260504211114 | 27 | 331 | 12.9 | 20.9 | 0.00 | 0.00 | 0.00 | 31 | 1002.4 |
| 20260504210613 | 26 | 253 | 4.8 | 9.7 | 0.00 | 0.00 | 0.00 | 32 | 1002.3 |
| 20260504210108 | 26 | 280 | 8.0 | 17.7 | 0.00 | 0.00 | 0.00 | 33 | 1002.6 |
| 20260504205606 | 26 | 286 | 16.1 | 22.5 | 0.00 | 0.00 | 0.00 | 33 | 1002.4 |
| 20260504205104 | 26 | 310 | 6.4 | 9.7 | 0.00 | 0.00 | 0.00 | 34 | 1002.5 |
| 20260504204601 | 26 | 296 | 8.0 | 9.7 | 0.00 | 0.00 | 0.00 | 34 | 1002.6 |
| 20260504204101 | 26 | 285 | 8.0 | 11.3 | 0.00 | 0.00 | 0.00 | 35 | 1002.9 |
| 20260504203559 | 26 | 248 | 16.1 | 22.5 | 0.00 | 0.00 | 0.00 | 35 | 1002.7 |
| 20260504203055 | 26 | 269 | 14.5 | 16.1 | 0.00 | 0.00 | 0.00 | 35 | 1002.9 |
| 20260504202551 | 26 | 201 | 9.7 | 12.9 | 0.00 | 0.00 | 0.00 | 37 | 1002.9 |
| 20260504202048 | 27 | 277 | 11.3 | 14.5 | 0.00 | 0.00 | 0.00 | 35 | 1002.7 |
| 20260504201545 | 27 | 276 | 4.8 | 9.7 | 0.00 | 0.00 | 0.00 | 35 | 1002.9 |
| 20260504201038 | 27 | 284 | 17.7 | 22.5 | 0.00 | 0.00 | 0.00 | 34 | 1003.1 |
| 20260504200533 | 27 | 257 | 11.3 | 17.7 | 0.00 | 0.00 | 0.00 | 34 | 1003.0 |
| 20260504200031 | 26 | 229 | 3.2 | 4.8 | 0.00 | 0.00 | 0.00 | 35 | 1003.3 |
| 20260504195526 | 26 | 242 | 8.0 | 11.3 | 0.00 | 0.00 | 0.00 | 35 | 1003.1 |
| 20260504195023 | 26 | 250 | 11.3 | 12.9 | 0.00 | 0.00 | 0.00 | 34 | 1003.3 |
| 20260504194520 | 27 | 278 | 8.0 | 11.3 | 0.00 | 0.00 | 0.00 | 35 | 1003.3 |
| 20260504194015 | 27 | 262 | 9.7 | 12.9 | 0.00 | 0.00 | 0.00 | 34 | 1003.3 |
| 20260504193512 | 26 | 224 | 11.3 | 11.3 | 0.00 | 0.00 | 0.00 | 35 | 1003.2 |
| 20260504193011 | 27 | 258 | 3.2 | 4.8 | 0.00 | 0.00 | 0.00 | 35 | 1003.2 |
| 20260504192509 | 27 | 266 | 12.9 | 17.7 | 0.00 | 0.00 | 0.00 | 34 | 1003.5 |
| 20260504192007 | 27 | 299 | 11.3 | 16.1 | 0.00 | 0.00 | 0.00 | 34 | 1003.3 |
| 20260504191504 | 26 | 262 | 6.4 | 9.7 | 0.00 | 0.00 | 0.00 | 34 | 1003.5 |
| 20260504191000 | 26 | 240 | 12.9 | 14.5 | 0.00 | 0.00 | 0.00 | 35 | 1003.6 |
| 20260504190456 | 26 | 265 | 8.0 | 11.3 | 0.00 | 0.00 | 0.00 | 35 | 1003.3 |
| 20260504185952 | 26 | 258 | 6.4 | 9.7 | 0.00 | 0.00 | 0.00 | 35 | 1003.5 |
| 20260504185450 | 27 | 207 | 8.0 | 11.3 | 0.00 | 0.00 | 0.00 | 34 | 1003.7 |
| 20260504184946 | 27 | 276 | 4.8 | 8.0 | 0.00 | 0.00 | 0.00 | 35 | 1003.4 |
| 20260504184442 | 26 | 291 | 20.9 | 29.0 | 0.00 | 0.00 | 0.00 | 34 | 1003.6 |
| 20260504183937 | 26 | 253 | 9.7 | 11.3 | 0.00 | 0.00 | 0.00 | 35 | 1003.6 |
| 20260504183435 | 26 | 215 | 12.9 | 20.9 | 0.00 | 0.00 | 0.00 | 35 | 1003.7 |
| 20260504182933 | 26 | 292 | 16.1 | 20.9 | 0.00 | 0.00 | 0.00 | 34 | 1003.6 |
| 20260504182429 | 26 | 223 | 8.0 | 12.9 | 0.00 | 0.00 | 0.00 | 36 | 1003.6 |
| 20260504181927 | 26 | 220 | 4.8 | 8.0 | 0.00 | 0.00 | 0.00 | 36 | 1003.8 |
| 20260504181424 | 27 | 268 | 6.4 | 8.0 | 0.00 | 0.00 | 0.00 | 36 | 1003.6 |
| 20260504180922 | 26 | 327 | 4.8 | 9.7 | 0.00 | 0.00 | 0.00 | 37 | 1003.6 |
| 20260504180421 | 26 | 237 | 9.7 | 12.9 | 0.00 | 0.00 | 0.00 | 35 | 1003.6 |
| 20260504175919 | 26 | 251 | 6.4 | 8.0 | 0.00 | 0.00 | 0.00 | 37 | 1003.7 |
| 20260504175415 | 26 | 247 | 20.9 | 24.1 | 0.00 | 0.00 | 0.00 | 36 | 1003.9 |
| 20260504174913 | 26 | 249 | 14.5 | 16.1 | 0.00 | 0.00 | 0.00 | 38 | 1003.6 |
| 20260504174410 | 26 | 212 | 6.4 | 8.0 | 0.00 | 0.00 | 0.00 | 38 | 1003.6 |
| 20260504173908 | 25 | 214 | 8.0 | 11.3 | 0.00 | 0.00 | 0.00 | 37 | 1003.5 |
| 20260504173404 | 26 | 249 | 11.3 | 14.5 | 0.00 | 0.00 | 0.00 | 37 | 1003.9 |
| 20260504172901 | 25 | 270 | 14.5 | 17.7 | 0.00 | 0.00 | 0.00 | 37 | 1003.9 |
| 20260504172357 | 26 | 280 | 11.3 | 16.1 | 0.00 | 0.00 | 0.00 | 36 | 1003.9 |
| 20260504171853 | 25 | 258 | 9.7 | 16.1 | 0.00 | 0.00 | 0.00 | 37 | 1003.9 |
| 20260504171351 | 25 | 268 | 4.8 | 11.3 | 0.00 | 0.00 | 0.00 | 38 | 1003.8 |
| 20260504170848 | 25 | 272 | 8.0 | 14.5 | 0.00 | 0.00 | 0.00 | 39 | 1003.8 |